createdAt,value
2022-10-08T00:01:02.109Z,97.82
2022-10-08T00:03:31.609Z,97.77
2022-10-08T00:06:04.756Z,97.99
2022-10-08T00:08:34.150Z,98.50
2022-10-08T00:11:04.048Z,98.43
2022-10-08T00:13:40.873Z,98.96
2022-10-08T00:16:26.621Z,99.07
2022-10-08T00:18:55.574Z,99.45
2022-10-08T00:21:25.571Z,100.00
2022-10-08T00:23:53.251Z,100.00
2022-10-08T00:26:26.630Z,100.00
2022-10-08T00:28:55.940Z,100.00
2022-10-08T00:31:43.783Z,100.00
2022-10-08T00:34:13.194Z,100.00
2022-10-08T00:36:41.033Z,100.00
2022-10-08T00:39:13.870Z,100.00
2022-10-08T00:41:41.398Z,100.00
2022-10-08T00:45:06.353Z,100.00
2022-10-08T00:47:32.912Z,100.00
2022-10-08T00:49:59.511Z,100.00
2022-10-08T00:52:29.037Z,100.00
2022-10-08T00:54:57.296Z,100.00
2022-10-08T00:57:24.332Z,100.00
2022-10-08T00:59:51.004Z,100.00
2022-10-08T01:02:19.270Z,100.00
2022-10-08T01:04:47.278Z,100.00
2022-10-08T01:07:23.769Z,100.00
2022-10-08T01:10:03.122Z,100.00
2022-10-08T01:12:47.243Z,100.00
2022-10-08T01:15:26.351Z,100.00
2022-10-08T01:18:01.781Z,100.00
2022-10-08T01:20:42.468Z,100.00
2022-10-08T01:23:27.473Z,100.00
2022-10-08T01:26:18.921Z,100.00
2022-10-08T01:28:56.381Z,100.00
2022-10-08T01:31:31.174Z,100.00
2022-10-08T01:34:03.083Z,100.00
2022-10-08T01:36:37.074Z,100.00
2022-10-08T01:39:09.191Z,100.00
2022-10-08T01:41:35.854Z,100.00
2022-10-08T01:44:08.859Z,100.00
2022-10-08T01:46:39.118Z,100.00
2022-10-08T01:49:11.503Z,100.00
2022-10-08T01:51:44.152Z,100.00
2022-10-08T01:54:16.367Z,100.00
2022-10-08T01:56:47.095Z,100.00
2022-10-08T01:59:22.967Z,100.00
2022-10-08T02:01:52.450Z,100.00
2022-10-08T02:04:37.073Z,100.00
2022-10-08T02:07:09.240Z,100.00
2022-10-08T02:09:40.785Z,100.00
2022-10-08T02:12:08.218Z,100.00
2022-10-08T02:14:40.195Z,100.00
2022-10-08T02:17:24.435Z,100.00
2022-10-08T02:20:14.643Z,100.00
2022-10-08T02:22:50.000Z,100.00
2022-10-08T02:25:30.630Z,100.00
2022-10-08T02:28:21.764Z,100.00
2022-10-08T02:31:04.706Z,100.00
2022-10-08T02:33:40.694Z,100.00
2022-10-08T02:36:10.029Z,100.00
2022-10-08T02:38:48.904Z,100.00
2022-10-08T02:41:17.041Z,100.00
2022-10-08T02:43:47.681Z,100.00
2022-10-08T02:46:17.813Z,100.00
2022-10-08T02:48:56.205Z,100.00
2022-10-08T02:51:24.847Z,100.00
2022-10-08T02:53:51.517Z,100.00
2022-10-08T02:56:25.329Z,100.00
2022-10-08T02:58:52.579Z,100.00
2022-10-08T03:01:26.534Z,100.00
2022-10-08T03:04:00.219Z,100.00
2022-10-08T03:06:28.477Z,100.00
2022-10-08T03:08:58.994Z,100.00
2022-10-08T03:11:27.361Z,100.00
2022-10-08T03:13:58.263Z,100.00
2022-10-08T03:16:32.181Z,100.00
2022-10-08T03:19:02.615Z,100.00
2022-10-08T03:21:30.402Z,100.00
2022-10-08T03:23:56.974Z,100.00
2022-10-08T03:26:23.479Z,100.00
2022-10-08T03:28:52.472Z,100.00
2022-10-08T03:31:19.316Z,100.00
2022-10-08T03:33:53.321Z,100.00
2022-10-08T03:36:21.600Z,100.00
2022-10-08T03:38:49.192Z,100.00
2022-10-08T03:41:16.781Z,100.00
2022-10-08T03:43:43.982Z,100.00
2022-10-08T03:46:12.297Z,100.00
2022-10-08T03:48:39.955Z,100.00
2022-10-08T03:51:10.825Z,100.00
2022-10-08T03:53:39.343Z,100.00
2022-10-08T03:56:08.904Z,100.00
2022-10-08T03:58:35.694Z,100.00
2022-10-08T04:01:05.338Z,100.00
2022-10-08T04:03:32.723Z,100.00
2022-10-08T04:05:59.575Z,100.00
2022-10-08T04:08:26.321Z,100.00
2022-10-08T04:10:53.628Z,100.00
2022-10-08T04:13:20.516Z,100.00
2022-10-08T04:15:48.276Z,100.00
2022-10-08T04:18:15.065Z,100.00
2022-10-08T04:20:42.224Z,100.00
2022-10-08T04:23:09.985Z,100.00
2022-10-08T04:25:37.089Z,100.00
2022-10-08T04:28:04.977Z,100.00
2022-10-08T04:30:32.525Z,100.00
2022-10-08T04:32:59.113Z,100.00
2022-10-08T04:35:26.216Z,100.00
2022-10-08T04:37:52.983Z,100.00
2022-10-08T04:40:19.537Z,100.00
2022-10-08T04:42:50.884Z,100.00
2022-10-08T04:45:17.575Z,100.00
2022-10-08T04:47:44.165Z,100.00
2022-10-08T04:50:10.703Z,100.00
2022-10-08T04:52:37.269Z,100.00
2022-10-08T04:55:04.594Z,100.00
2022-10-08T04:57:31.713Z,100.00
2022-10-08T05:00:17.784Z,100.00
2022-10-08T05:02:45.690Z,100.00
2022-10-08T05:05:12.562Z,100.00
2022-10-08T05:07:39.098Z,100.00
2022-10-08T05:10:06.147Z,100.00
2022-10-08T05:12:32.714Z,100.00
2022-10-08T05:14:59.358Z,100.00
2022-10-08T05:17:25.912Z,100.00
2022-10-08T05:19:52.818Z,100.00
2022-10-08T05:22:19.304Z,100.00
2022-10-08T05:24:45.881Z,100.00
2022-10-08T05:27:12.458Z,100.00
2022-10-08T05:29:38.989Z,100.00
2022-10-08T05:32:05.546Z,100.00
2022-10-08T05:34:32.071Z,100.00
2022-10-08T05:36:58.607Z,100.00
2022-10-08T05:39:25.239Z,100.00
2022-10-08T05:41:53.296Z,100.00
2022-10-08T05:44:20.354Z,100.00
2022-10-08T05:46:46.948Z,100.00
2022-10-08T05:49:20.321Z,100.00
2022-10-08T05:51:47.945Z,100.00
2022-10-08T05:54:14.622Z,100.00
2022-10-08T05:56:41.240Z,100.00
2022-10-08T05:59:17.077Z,100.00
2022-10-08T06:01:44.056Z,100.00
2022-10-08T06:04:11.349Z,100.00
2022-10-08T06:06:40.268Z,99.63
2022-10-08T06:09:08.650Z,99.67
2022-10-08T06:11:36.889Z,100.00
2022-10-08T06:14:06.054Z,99.58
2022-10-08T06:16:33.477Z,99.62
2022-10-08T06:19:02.169Z,99.45
2022-10-08T06:21:29.552Z,98.71
2022-10-08T06:23:58.452Z,98.54
2022-10-08T06:26:32.946Z,97.80
2022-10-08T06:29:01.896Z,98.24
2022-10-08T06:31:28.573Z,98.09
2022-10-08T06:33:58.561Z,98.15
2022-10-08T06:36:27.168Z,97.96
2022-10-08T06:39:00.823Z,97.56
2022-10-08T06:41:30.473Z,98.11
2022-10-08T06:43:57.348Z,98.20
2022-10-08T06:46:24.467Z,98.17
2022-10-08T06:48:51.119Z,97.69
2022-10-08T06:51:18.868Z,98.00
2022-10-08T06:53:51.450Z,97.41
2022-10-08T06:56:18.143Z,97.49
2022-10-08T06:58:45.333Z,97.44
2022-10-08T07:01:19.618Z,98.30
2022-10-08T07:04:06.660Z,97.72
2022-10-08T07:06:33.356Z,97.90
2022-10-08T07:09:01.456Z,98.22
2022-10-08T07:11:28.701Z,98.65
2022-10-08T07:13:56.295Z,99.04
2022-10-08T07:16:24.828Z,98.83
2022-10-08T07:18:52.995Z,99.47
2022-10-08T07:21:21.976Z,99.74
2022-10-08T07:23:49.704Z,99.83
2022-10-08T07:26:26.632Z,98.88
2022-10-08T07:28:59.213Z,98.10
2022-10-08T07:31:29.841Z,97.92
2022-10-08T07:34:01.218Z,97.64
2022-10-08T07:36:28.894Z,97.58
2022-10-08T07:38:57.126Z,97.49
2022-10-08T07:41:24.945Z,97.00
2022-10-08T07:43:53.690Z,96.38
2022-10-08T07:46:20.950Z,96.68
2022-10-08T07:48:47.583Z,96.58
2022-10-08T07:51:17.426Z,96.64
2022-10-08T07:53:44.845Z,96.62
2022-10-08T07:56:14.484Z,96.53
2022-10-08T07:58:42.074Z,96.36
2022-10-08T08:01:12.251Z,96.62
2022-10-08T08:03:38.820Z,96.86
2022-10-08T08:06:12.159Z,96.71
2022-10-08T08:08:40.892Z,96.49
2022-10-08T08:11:10.002Z,96.48
2022-10-08T08:13:37.951Z,96.84
2022-10-08T08:16:08.322Z,96.95
2022-10-08T08:18:37.774Z,97.27
2022-10-08T08:21:10.000Z,97.23
2022-10-08T08:23:40.121Z,97.54
2022-10-08T08:26:18.846Z,97.72
2022-10-08T08:28:45.548Z,97.50
2022-10-08T08:31:15.319Z,97.50
2022-10-08T08:33:43.181Z,98.48
2022-10-08T08:36:09.941Z,98.58
2022-10-08T08:38:39.953Z,97.96
2022-10-08T08:41:19.785Z,97.83
2022-10-08T08:43:47.924Z,97.15
2022-10-08T08:46:19.998Z,96.90
2022-10-08T08:48:46.888Z,96.71
2022-10-08T08:51:13.610Z,96.79
2022-10-08T08:53:40.211Z,97.42
2022-10-08T08:56:12.553Z,96.66
2022-10-08T08:58:58.530Z,96.12
2022-10-08T09:01:33.552Z,95.40
2022-10-08T09:04:26.588Z,95.27
2022-10-08T09:06:56.333Z,95.13
2022-10-08T09:09:31.298Z,94.67
2022-10-08T09:11:58.299Z,95.12
2022-10-08T09:14:37.064Z,94.70
2022-10-08T09:17:28.277Z,94.51
2022-10-08T09:19:55.358Z,95.87
2022-10-08T09:22:25.771Z,96.75
2022-10-08T09:25:06.444Z,95.58
2022-10-08T09:28:09.227Z,95.83
2022-10-08T09:30:45.036Z,93.63
2022-10-08T09:33:18.613Z,93.29
2022-10-08T09:35:48.930Z,92.92
2022-10-08T09:38:21.545Z,91.41
2022-10-08T09:41:17.458Z,90.77
2022-10-08T09:43:45.623Z,88.13
2022-10-08T09:46:29.854Z,88.24
2022-10-08T09:48:56.609Z,85.06
2022-10-08T09:51:23.695Z,86.05
2022-10-08T09:53:54.745Z,85.61
2022-10-08T09:56:27.643Z,84.19
2022-10-08T09:58:58.418Z,85.38
2022-10-08T10:01:25.690Z,84.93
2022-10-08T10:03:57.841Z,83.68
2022-10-08T10:06:27.194Z,83.66
2022-10-08T10:09:18.866Z,84.40
2022-10-08T10:11:59.169Z,85.54
2022-10-08T10:14:33.268Z,85.43
2022-10-08T10:17:10.441Z,85.51
2022-10-08T10:19:46.120Z,85.56
2022-10-08T10:22:19.292Z,84.62
2022-10-08T10:25:09.500Z,84.31
2022-10-08T10:27:42.257Z,83.90
2022-10-08T10:30:18.654Z,83.91
2022-10-08T10:33:12.972Z,83.79
2022-10-08T10:35:50.025Z,83.61
2022-10-08T10:38:24.019Z,83.35
2022-10-08T10:41:11.989Z,82.65
2022-10-08T10:43:53.629Z,81.84
2022-10-08T10:46:32.381Z,80.87
2022-10-08T10:49:00.089Z,78.65
2022-10-08T10:51:56.101Z,78.61
2022-10-08T10:54:37.901Z,77.69
2022-10-08T10:57:36.868Z,77.27
2022-10-08T11:00:09.775Z,76.84
2022-10-08T11:02:59.463Z,77.56
2022-10-08T11:05:30.314Z,76.16
2022-10-08T11:08:11.850Z,76.05
2022-10-08T11:11:00.767Z,74.59
2022-10-08T11:13:30.173Z,74.40
2022-10-08T11:16:04.914Z,74.74
2022-10-08T11:18:49.430Z,73.35
2022-10-08T11:21:21.927Z,72.50
2022-10-08T11:24:00.670Z,71.36
2022-10-08T11:26:37.141Z,69.97
2022-10-08T11:29:17.526Z,70.28
2022-10-08T11:31:51.826Z,68.17
2022-10-08T11:34:34.409Z,69.19
2022-10-08T11:37:29.341Z,68.80
2022-10-08T11:40:23.954Z,68.58
2022-10-08T11:43:07.165Z,68.77
2022-10-08T11:45:36.712Z,69.37
2022-10-08T11:48:29.534Z,68.44
2022-10-08T11:51:18.837Z,68.65
2022-10-08T11:54:04.284Z,68.41
2022-10-08T11:56:34.730Z,67.90
2022-10-08T11:59:10.270Z,66.19
2022-10-08T12:02:05.641Z,65.00
2022-10-08T12:04:36.233Z,63.85
2022-10-08T12:07:24.433Z,64.82
2022-10-08T12:10:31.477Z,64.53
2022-10-08T12:13:02.709Z,62.99
2022-10-08T12:15:33.135Z,62.81
2022-10-08T12:18:26.253Z,63.43
2022-10-08T12:21:20.365Z,63.41
2022-10-08T12:23:47.117Z,64.04
2022-10-08T12:26:15.750Z,62.92
2022-10-08T12:28:45.257Z,63.14
2022-10-08T12:31:30.911Z,60.67
2022-10-08T12:34:14.220Z,60.93
2022-10-08T12:36:46.916Z,63.15
2022-10-08T12:39:36.131Z,65.39
2022-10-08T12:42:14.636Z,68.85
2022-10-08T12:44:57.060Z,72.25
2022-10-08T12:48:08.907Z,75.14
2022-10-08T12:51:05.061Z,77.35
2022-10-08T12:53:33.095Z,83.82
2022-10-08T12:56:00.136Z,88.02
2022-10-08T12:58:31.738Z,89.44
2022-10-08T13:01:04.351Z,91.38
2022-10-08T13:03:31.203Z,91.49
2022-10-08T13:05:57.959Z,90.93
2022-10-08T13:08:35.191Z,90.77
2022-10-08T13:11:13.475Z,90.42
2022-10-08T13:13:40.052Z,89.30
2022-10-08T13:16:12.275Z,88.80
2022-10-08T13:18:44.498Z,88.82
2022-10-08T13:21:32.130Z,87.81
2022-10-08T13:24:20.503Z,86.62
2022-10-08T13:26:50.082Z,85.65
2022-10-08T13:29:22.669Z,86.64
2022-10-08T13:32:14.063Z,86.27
2022-10-08T13:34:40.571Z,86.17
2022-10-08T13:37:22.385Z,85.80
2022-10-08T13:39:54.901Z,85.25
2022-10-08T13:42:26.090Z,84.11
2022-10-08T13:44:52.920Z,82.44
2022-10-08T13:47:22.667Z,81.28
2022-10-08T13:49:49.674Z,78.61
2022-10-08T13:52:22.538Z,78.50
2022-10-08T13:54:53.750Z,77.32
2022-10-08T13:57:20.400Z,76.42
2022-10-08T13:59:47.138Z,75.48
2022-10-08T14:02:14.536Z,76.24
2022-10-08T14:04:41.516Z,76.72
2022-10-08T14:07:22.652Z,77.82
2022-10-08T14:09:49.527Z,77.79
2022-10-08T14:12:17.318Z,75.42
2022-10-08T14:14:43.821Z,76.40
2022-10-08T14:17:10.318Z,75.21
2022-10-08T14:19:36.903Z,76.26
2022-10-08T14:22:03.398Z,76.68
2022-10-08T14:24:29.908Z,76.34
2022-10-08T14:26:56.544Z,75.51
2022-10-08T14:29:23.115Z,75.81
2022-10-08T14:31:49.918Z,75.88
2022-10-08T14:34:16.597Z,75.45
2022-10-08T14:36:43.464Z,75.32
2022-10-08T14:39:10.366Z,76.19
2022-10-08T14:41:37.352Z,76.51
2022-10-08T14:44:03.930Z,76.20
2022-10-08T14:46:30.589Z,76.58
2022-10-08T14:48:57.562Z,76.08
2022-10-08T14:51:24.304Z,76.33
2022-10-08T14:53:52.212Z,77.01
2022-10-08T14:56:18.865Z,77.93
2022-10-08T14:58:45.432Z,76.80
2022-10-08T15:01:12.163Z,77.32
2022-10-08T15:03:38.802Z,75.76
2022-10-08T15:06:05.469Z,75.78
2022-10-08T15:08:32.126Z,76.25
2022-10-08T15:11:01.736Z,76.48
2022-10-08T15:13:29.018Z,76.90
2022-10-08T15:15:55.564Z,76.98
2022-10-08T15:18:22.016Z,76.99
2022-10-08T15:21:00.399Z,77.28
2022-10-08T15:23:27.615Z,77.27
2022-10-08T15:25:59.632Z,77.26
2022-10-08T15:28:27.942Z,77.08
2022-10-08T15:31:14.616Z,76.99
2022-10-08T15:33:49.393Z,77.10
2022-10-08T15:36:27.663Z,76.43
2022-10-08T15:38:59.868Z,76.72
2022-10-08T15:41:28.287Z,76.68
2022-10-08T15:43:54.843Z,76.84
2022-10-08T15:46:22.822Z,76.84
2022-10-08T15:48:54.948Z,77.19
2022-10-08T15:51:23.072Z,76.89
2022-10-08T15:53:50.333Z,76.94
2022-10-08T15:56:16.941Z,77.08
2022-10-08T15:58:50.964Z,77.55
2022-10-08T16:01:20.763Z,77.39
2022-10-08T16:03:49.414Z,76.77
2022-10-08T16:06:28.484Z,75.84
2022-10-08T16:08:58.269Z,75.40
2022-10-08T16:11:30.448Z,74.34
2022-10-08T16:14:06.505Z,74.11
2022-10-08T16:16:33.174Z,74.09
2022-10-08T16:19:04.137Z,73.91
2022-10-08T16:21:33.231Z,74.61
2022-10-08T16:24:00.845Z,74.79
2022-10-08T16:26:31.633Z,74.50
2022-10-08T16:29:00.586Z,74.54
2022-10-08T16:31:29.283Z,74.94
2022-10-08T16:33:58.039Z,74.99
2022-10-08T16:36:25.490Z,74.93
2022-10-08T16:38:52.502Z,74.92
2022-10-08T16:41:30.633Z,75.31
2022-10-08T16:43:59.869Z,76.15
2022-10-08T16:46:36.113Z,76.20
2022-10-08T16:49:06.446Z,76.31
2022-10-08T16:51:36.527Z,76.72
2022-10-08T16:54:06.460Z,77.47
2022-10-08T16:56:35.969Z,78.02
2022-10-08T16:59:08.016Z,78.23
2022-10-08T17:01:36.306Z,78.42
2022-10-08T17:04:05.680Z,78.97
2022-10-08T17:06:32.798Z,79.86
2022-10-08T17:09:08.901Z,80.17
2022-10-08T17:11:36.904Z,80.79
2022-10-08T17:14:04.221Z,81.21
2022-10-08T17:16:31.535Z,81.90
2022-10-08T17:19:00.068Z,81.60
2022-10-08T17:21:28.509Z,81.82
2022-10-08T17:23:57.592Z,82.33
2022-10-08T17:26:26.074Z,82.12
2022-10-08T17:28:52.784Z,82.72
2022-10-08T17:31:22.682Z,82.68
2022-10-08T17:33:50.036Z,83.32
2022-10-08T17:36:22.573Z,83.30
2022-10-08T17:38:51.651Z,83.29
2022-10-08T17:41:20.657Z,83.75
2022-10-08T17:43:48.442Z,84.46
2022-10-08T17:46:17.738Z,84.06
2022-10-08T17:48:45.329Z,84.29
2022-10-08T17:51:14.332Z,84.26
2022-10-08T17:53:42.709Z,84.53
2022-10-08T17:56:11.668Z,84.84
2022-10-08T17:58:38.960Z,85.01
2022-10-08T18:01:07.185Z,85.51
2022-10-08T18:03:34.348Z,85.74
2022-10-08T18:06:02.368Z,86.17
2022-10-08T18:08:29.228Z,86.78
2022-10-08T18:10:57.004Z,86.83
2022-10-08T18:13:23.596Z,87.72
2022-10-08T18:15:50.182Z,87.00
2022-10-08T18:18:16.993Z,87.11
2022-10-08T18:20:56.598Z,87.60
2022-10-08T18:23:24.138Z,88.32
2022-10-08T18:25:53.921Z,87.84
2022-10-08T18:28:21.907Z,88.36
2022-10-08T18:30:48.714Z,89.10
2022-10-08T18:33:15.985Z,89.10
2022-10-08T18:35:42.475Z,89.43
2022-10-08T18:38:08.954Z,89.50
2022-10-08T18:40:35.672Z,89.74
2022-10-08T18:43:02.313Z,89.88
2022-10-08T18:45:29.132Z,89.90
2022-10-08T18:47:55.706Z,90.24
2022-10-08T18:50:22.484Z,90.65
2022-10-08T18:52:49.507Z,90.63
2022-10-08T18:55:16.665Z,91.05
2022-10-08T18:57:43.455Z,91.28
2022-10-08T19:00:10.446Z,91.45
2022-10-08T19:02:37.270Z,91.14
2022-10-08T19:05:04.332Z,91.62
2022-10-08T19:07:30.993Z,91.69
2022-10-08T19:09:57.571Z,91.86
2022-10-08T19:12:24.462Z,91.96
2022-10-08T19:14:53.111Z,92.33
2022-10-08T19:17:20.019Z,92.29
2022-10-08T19:19:46.531Z,92.79
2022-10-08T19:22:13.044Z,93.06
2022-10-08T19:24:41.151Z,92.91
2022-10-08T19:27:08.501Z,93.24
2022-10-08T19:29:35.969Z,93.31
2022-10-08T19:32:03.167Z,93.54
2022-10-08T19:34:29.783Z,93.83
2022-10-08T19:36:56.765Z,93.70
2022-10-08T19:39:26.043Z,93.70
2022-10-08T19:41:53.101Z,93.77
2022-10-08T19:44:28.272Z,94.44
2022-10-08T19:46:55.029Z,94.34
2022-10-08T19:49:22.181Z,94.61
2022-10-08T19:51:48.765Z,94.64
2022-10-08T19:54:16.499Z,94.57
2022-10-08T19:56:43.053Z,95.00
2022-10-08T19:59:11.606Z,95.09
2022-10-08T20:01:39.284Z,95.14
2022-10-08T20:04:07.408Z,95.82
2022-10-08T20:06:38.533Z,95.43
2022-10-08T20:09:07.281Z,95.56
2022-10-08T20:11:33.961Z,95.73
2022-10-08T20:14:01.841Z,95.56
2022-10-08T20:16:34.310Z,95.59
2022-10-08T20:19:03.543Z,95.88
2022-10-08T20:21:37.251Z,96.43
2022-10-08T20:24:04.624Z,96.25
2022-10-08T20:26:33.078Z,96.54
2022-10-08T20:29:02.622Z,96.90
2022-10-08T20:31:32.477Z,96.99
2022-10-08T20:34:00.142Z,97.03
2022-10-08T20:36:27.478Z,96.99
2022-10-08T20:38:54.227Z,96.56
2022-10-08T20:41:21.119Z,96.61
2022-10-08T20:43:48.173Z,96.45
2022-10-08T20:46:15.909Z,96.33
2022-10-08T20:48:44.100Z,96.46
2022-10-08T20:51:13.852Z,97.31
2022-10-08T20:53:45.717Z,96.81
2022-10-08T20:56:12.683Z,97.41
2022-10-08T20:58:39.636Z,97.20
2022-10-08T21:01:28.423Z,97.64
2022-10-08T21:03:55.535Z,97.98
2022-10-08T21:06:36.794Z,97.91
2022-10-08T21:09:03.565Z,98.11
2022-10-08T21:11:31.108Z,98.17
2022-10-08T21:14:00.033Z,98.44
2022-10-08T21:16:32.678Z,98.65
2022-10-08T21:19:01.709Z,98.51
2022-10-08T21:21:29.809Z,98.67
2022-10-08T21:23:57.248Z,98.72
2022-10-08T21:26:29.030Z,98.75
2022-10-08T21:29:00.902Z,99.53
2022-10-08T21:31:30.557Z,99.17
2022-10-08T21:33:58.479Z,99.15
2022-10-08T21:36:29.352Z,99.27
2022-10-08T21:38:56.520Z,99.74
2022-10-08T21:41:24.695Z,99.75
2022-10-08T21:43:53.648Z,99.84
2022-10-08T21:46:26.372Z,99.99
2022-10-08T21:48:59.940Z,100.00
2022-10-08T21:51:27.496Z,99.91
2022-10-08T21:53:56.651Z,100.00
2022-10-08T21:56:25.467Z,100.00
2022-10-08T21:58:54.285Z,100.00
2022-10-08T22:01:23.806Z,100.00
2022-10-08T22:03:58.805Z,100.00
2022-10-08T22:06:26.876Z,100.00
2022-10-08T22:08:53.685Z,100.00
2022-10-08T22:11:20.834Z,100.00
2022-10-08T22:13:47.561Z,100.00
2022-10-08T22:16:15.936Z,100.00
2022-10-08T22:18:42.552Z,100.00
2022-10-08T22:21:14.858Z,100.00
2022-10-08T22:23:41.591Z,100.00
2022-10-08T22:26:11.792Z,100.00
2022-10-08T22:28:39.044Z,100.00
2022-10-08T22:31:08.320Z,100.00
2022-10-08T22:33:36.044Z,100.00
2022-10-08T22:36:14.163Z,100.00
2022-10-08T22:38:42.253Z,100.00
2022-10-08T22:41:11.963Z,100.00
2022-10-08T22:43:39.809Z,100.00
2022-10-08T22:46:10.070Z,100.00
2022-10-08T22:48:37.366Z,100.00
2022-10-08T22:51:10.969Z,100.00
2022-10-08T22:53:37.591Z,100.00
2022-10-08T22:56:06.459Z,100.00
2022-10-08T22:58:34.755Z,100.00
2022-10-08T23:01:05.563Z,100.00
2022-10-08T23:03:32.545Z,100.00
2022-10-08T23:06:17.873Z,100.00
2022-10-08T23:08:45.816Z,100.00
2022-10-08T23:11:13.219Z,100.00
2022-10-08T23:13:40.103Z,100.00
2022-10-08T23:16:11.506Z,100.00
2022-10-08T23:18:40.057Z,100.00
2022-10-08T23:21:15.942Z,100.00
2022-10-08T23:23:46.619Z,100.00
2022-10-08T23:26:14.344Z,100.00
2022-10-08T23:28:41.794Z,100.00
2022-10-08T23:31:10.115Z,100.00
2022-10-08T23:33:42.345Z,100.00
2022-10-08T23:36:10.949Z,100.00
2022-10-08T23:38:38.100Z,100.00
2022-10-08T23:41:07.357Z,100.00
2022-10-08T23:43:36.278Z,100.00
2022-10-08T23:46:04.622Z,100.00
2022-10-08T23:48:31.444Z,100.00
2022-10-08T23:50:58.051Z,100.00
2022-10-08T23:53:25.239Z,100.00
2022-10-08T23:55:51.868Z,100.00
2022-10-08T23:58:18.649Z,100.00
